<?xml version="1.0" encoding="UTF-8"?>
<gpx creator="Wikiloc - http://www.wikiloc.com" version="1.1" xmlns="http://www.topografix.com/GPX/1/1" xmlns:xsi="http://www.w3.org/2001/XMLSchema-instance" xsi:schemaLocation="http://www.topografix.com/GPX/1/1 http://www.topografix.com/GPX/1/1/gpx.xsd">
  <trk>
    <name>Muruzabal Puente (camino Santiago</name>
    <cmt></cmt>
    <desc></desc>
    <trkseg>
      <trkpt lat="42.689577" lon="-1.770135">
        <ele>447.0</ele>
        <time>2014-05-20T13:25:59Z</time>
      </trkpt>
      <trkpt lat="42.689368" lon="-1.770188">
        <ele>447.0</ele>
        <time>2014-05-20T13:26:39Z</time>
      </trkpt>
      <trkpt lat="42.689443" lon="-1.770585">
        <ele>447.0</ele>
        <time>2014-05-20T13:27:19Z</time>
      </trkpt>
      <trkpt lat="42.689521" lon="-1.770934">
        <ele>446.0</ele>
        <time>2014-05-20T13:27:59Z</time>
      </trkpt>
      <trkpt lat="42.689573" lon="-1.771234">
        <ele>440.0</ele>
        <time>2014-05-20T13:28:39Z</time>
      </trkpt>
      <trkpt lat="42.689253" lon="-1.771556">
        <ele>433.0</ele>
        <time>2014-05-20T13:29:19Z</time>
      </trkpt>
      <trkpt lat="42.689009" lon="-1.771787">
        <ele>439.0</ele>
        <time>2014-05-20T13:29:59Z</time>
      </trkpt>
      <trkpt lat="42.688757" lon="-1.771921">
        <ele>437.0</ele>
        <time>2014-05-20T13:30:39Z</time>
      </trkpt>
      <trkpt lat="42.688153" lon="-1.772237">
        <ele>446.0</ele>
        <time>2014-05-20T13:31:19Z</time>
      </trkpt>
      <trkpt lat="42.687810" lon="-1.772532">
        <ele>443.0</ele>
        <time>2014-05-20T13:31:59Z</time>
      </trkpt>
      <trkpt lat="42.687775" lon="-1.772688">
        <ele>440.0</ele>
        <time>2014-05-20T13:32:39Z</time>
      </trkpt>
      <trkpt lat="42.687712" lon="-1.773128">
        <ele>436.0</ele>
        <time>2014-05-20T13:33:19Z</time>
      </trkpt>
      <trkpt lat="42.687637" lon="-1.773348">
        <ele>434.0</ele>
        <time>2014-05-20T13:33:59Z</time>
      </trkpt>
      <trkpt lat="42.687250" lon="-1.773815">
        <ele>426.0</ele>
        <time>2014-05-20T13:34:39Z</time>
      </trkpt>
      <trkpt lat="42.686880" lon="-1.774356">
        <ele>416.0</ele>
        <time>2014-05-20T13:35:19Z</time>
      </trkpt>
      <trkpt lat="42.686469" lon="-1.774828">
        <ele>410.0</ele>
        <time>2014-05-20T13:35:59Z</time>
      </trkpt>
      <trkpt lat="42.685921" lon="-1.775327">
        <ele>404.0</ele>
        <time>2014-05-20T13:36:39Z</time>
      </trkpt>
      <trkpt lat="42.685574" lon="-1.775617">
        <ele>403.0</ele>
        <time>2014-05-20T13:37:19Z</time>
      </trkpt>
      <trkpt lat="42.685259" lon="-1.775891">
        <ele>401.0</ele>
        <time>2014-05-20T13:37:59Z</time>
      </trkpt>
      <trkpt lat="42.684723" lon="-1.776615">
        <ele>395.0</ele>
        <time>2014-05-20T13:38:39Z</time>
      </trkpt>
      <trkpt lat="42.684423" lon="-1.777012">
        <ele>395.0</ele>
        <time>2014-05-20T13:39:19Z</time>
      </trkpt>
      <trkpt lat="42.684245" lon="-1.777344">
        <ele>396.0</ele>
        <time>2014-05-20T13:39:59Z</time>
      </trkpt>
      <trkpt lat="42.684072" lon="-1.777725">
        <ele>395.0</ele>
        <time>2014-05-20T13:40:39Z</time>
      </trkpt>
      <trkpt lat="42.683958" lon="-1.778085">
        <ele>397.0</ele>
        <time>2014-05-20T13:41:19Z</time>
      </trkpt>
      <trkpt lat="42.683902" lon="-1.778181">
        <ele>397.0</ele>
        <time>2014-05-20T13:41:59Z</time>
      </trkpt>
      <trkpt lat="42.683575" lon="-1.778487">
        <ele>401.0</ele>
        <time>2014-05-20T13:42:39Z</time>
      </trkpt>
      <trkpt lat="42.683457" lon="-1.778761">
        <ele>403.0</ele>
        <time>2014-05-20T13:43:19Z</time>
      </trkpt>
      <trkpt lat="42.683283" lon="-1.779093">
        <ele>406.0</ele>
        <time>2014-05-20T13:43:59Z</time>
      </trkpt>
      <trkpt lat="42.683086" lon="-1.779420">
        <ele>408.0</ele>
        <time>2014-05-20T13:44:39Z</time>
      </trkpt>
      <trkpt lat="42.682885" lon="-1.779807">
        <ele>410.0</ele>
        <time>2014-05-20T13:45:19Z</time>
      </trkpt>
      <trkpt lat="42.682660" lon="-1.780177">
        <ele>413.0</ele>
        <time>2014-05-20T13:45:59Z</time>
      </trkpt>
      <trkpt lat="42.682368" lon="-1.780574">
        <ele>415.0</ele>
        <time>2014-05-20T13:46:39Z</time>
      </trkpt>
      <trkpt lat="42.682215" lon="-1.780826">
        <ele>414.0</ele>
        <time>2014-05-20T13:47:19Z</time>
      </trkpt>
      <trkpt lat="42.681749" lon="-1.781228">
        <ele>409.0</ele>
        <time>2014-05-20T13:47:59Z</time>
      </trkpt>
      <trkpt lat="42.681386" lon="-1.781577">
        <ele>413.0</ele>
        <time>2014-05-20T13:48:39Z</time>
      </trkpt>
      <trkpt lat="42.681335" lon="-1.781840">
        <ele>417.0</ele>
        <time>2014-05-20T13:49:19Z</time>
      </trkpt>
      <trkpt lat="42.681276" lon="-1.782323">
        <ele>423.0</ele>
        <time>2014-05-20T13:49:59Z</time>
      </trkpt>
      <trkpt lat="42.681276" lon="-1.782832">
        <ele>432.0</ele>
        <time>2014-05-20T13:50:39Z</time>
      </trkpt>
      <trkpt lat="42.681284" lon="-1.783460">
        <ele>429.0</ele>
        <time>2014-05-20T13:51:19Z</time>
      </trkpt>
      <trkpt lat="42.681292" lon="-1.783798">
        <ele>424.0</ele>
        <time>2014-05-20T13:51:59Z</time>
      </trkpt>
      <trkpt lat="42.681323" lon="-1.784114">
        <ele>423.0</ele>
        <time>2014-05-20T13:52:39Z</time>
      </trkpt>
      <trkpt lat="42.681355" lon="-1.784302">
        <ele>423.0</ele>
        <time>2014-05-20T13:53:19Z</time>
      </trkpt>
      <trkpt lat="42.681106" lon="-1.784490">
        <ele>421.0</ele>
        <time>2014-05-20T13:53:59Z</time>
      </trkpt>
      <trkpt lat="42.680850" lon="-1.784629">
        <ele>421.0</ele>
        <time>2014-05-20T13:54:39Z</time>
      </trkpt>
      <trkpt lat="42.680882" lon="-1.784849">
        <ele>421.0</ele>
        <time>2014-05-20T13:55:19Z</time>
      </trkpt>
      <trkpt lat="42.680953" lon="-1.785144">
        <ele>418.0</ele>
        <time>2014-05-20T13:55:59Z</time>
      </trkpt>
      <trkpt lat="42.680799" lon="-1.785278">
        <ele>418.0</ele>
        <time>2014-05-20T13:56:39Z</time>
      </trkpt>
      <trkpt lat="42.680546" lon="-1.785429">
        <ele>413.0</ele>
        <time>2014-05-20T13:57:19Z</time>
      </trkpt>
      <trkpt lat="42.680211" lon="-1.785579">
        <ele>410.0</ele>
        <time>2014-05-20T13:57:59Z</time>
      </trkpt>
      <trkpt lat="42.679951" lon="-1.785691">
        <ele>408.0</ele>
        <time>2014-05-20T13:58:39Z</time>
      </trkpt>
      <trkpt lat="42.679714" lon="-1.785799">
        <ele>408.0</ele>
        <time>2014-05-20T13:59:19Z</time>
      </trkpt>
      <trkpt lat="42.679549" lon="-1.785895">
        <ele>410.0</ele>
        <time>2014-05-20T13:59:59Z</time>
      </trkpt>
      <trkpt lat="42.679426" lon="-1.786180">
        <ele>408.0</ele>
        <time>2014-05-20T14:00:39Z</time>
      </trkpt>
      <trkpt lat="42.679273" lon="-1.786416">
        <ele>404.0</ele>
        <time>2014-05-20T14:01:19Z</time>
      </trkpt>
      <trkpt lat="42.679320" lon="-1.786764">
        <ele>404.0</ele>
        <time>2014-05-20T14:01:59Z</time>
      </trkpt>
      <trkpt lat="42.679277" lon="-1.786968">
        <ele>403.0</ele>
        <time>2014-05-20T14:02:39Z</time>
      </trkpt>
      <trkpt lat="42.679210" lon="-1.787049">
        <ele>403.0</ele>
        <time>2014-05-20T14:03:19Z</time>
      </trkpt>
      <trkpt lat="42.679245" lon="-1.787183">
        <ele>407.0</ele>
        <time>2014-05-20T14:03:59Z</time>
      </trkpt>
      <trkpt lat="42.679107" lon="-1.787403">
        <ele>411.0</ele>
        <time>2014-05-20T14:04:39Z</time>
      </trkpt>
      <trkpt lat="42.678926" lon="-1.787708">
        <ele>409.0</ele>
        <time>2014-05-20T14:05:19Z</time>
      </trkpt>
      <trkpt lat="42.678949" lon="-1.788180">
        <ele>413.0</ele>
        <time>2014-05-20T14:05:59Z</time>
      </trkpt>
      <trkpt lat="42.679127" lon="-1.788958">
        <ele>411.0</ele>
        <time>2014-05-20T14:06:39Z</time>
      </trkpt>
      <trkpt lat="42.679213" lon="-1.789318">
        <ele>407.0</ele>
        <time>2014-05-20T14:07:19Z</time>
      </trkpt>
      <trkpt lat="42.679328" lon="-1.789865">
        <ele>406.0</ele>
        <time>2014-05-20T14:07:59Z</time>
      </trkpt>
      <trkpt lat="42.679391" lon="-1.790160">
        <ele>405.0</ele>
        <time>2014-05-20T14:08:39Z</time>
      </trkpt>
      <trkpt lat="42.679407" lon="-1.790616">
        <ele>406.0</ele>
        <time>2014-05-20T14:09:19Z</time>
      </trkpt>
      <trkpt lat="42.679367" lon="-1.790991">
        <ele>407.0</ele>
        <time>2014-05-20T14:09:59Z</time>
      </trkpt>
      <trkpt lat="42.679300" lon="-1.791447">
        <ele>407.0</ele>
        <time>2014-05-20T14:10:39Z</time>
      </trkpt>
      <trkpt lat="42.679095" lon="-1.791909">
        <ele>405.0</ele>
        <time>2014-05-20T14:11:19Z</time>
      </trkpt>
      <trkpt lat="42.678839" lon="-1.792445">
        <ele>400.0</ele>
        <time>2014-05-20T14:11:59Z</time>
      </trkpt>
      <trkpt lat="42.678713" lon="-1.792767">
        <ele>397.0</ele>
        <time>2014-05-20T14:12:39Z</time>
      </trkpt>
      <trkpt lat="42.678539" lon="-1.793073">
        <ele>397.0</ele>
        <time>2014-05-20T14:13:19Z</time>
      </trkpt>
      <trkpt lat="42.678484" lon="-1.793180">
        <ele>397.0</ele>
        <time>2014-05-20T14:13:59Z</time>
      </trkpt>
      <trkpt lat="42.678405" lon="-1.793443">
        <ele>396.0</ele>
        <time>2014-05-20T14:14:39Z</time>
      </trkpt>
      <trkpt lat="42.678267" lon="-1.794253">
        <ele>391.0</ele>
        <time>2014-05-20T14:15:19Z</time>
      </trkpt>
      <trkpt lat="42.678235" lon="-1.794763">
        <ele>388.0</ele>
        <time>2014-05-20T14:15:59Z</time>
      </trkpt>
      <trkpt lat="42.678141" lon="-1.795251">
        <ele>380.0</ele>
        <time>2014-05-20T14:16:39Z</time>
      </trkpt>
      <trkpt lat="42.678062" lon="-1.795664">
        <ele>379.0</ele>
        <time>2014-05-20T14:17:19Z</time>
      </trkpt>
      <trkpt lat="42.677813" lon="-1.797085">
        <ele>367.0</ele>
        <time>2014-05-20T14:17:59Z</time>
      </trkpt>
      <trkpt lat="42.677754" lon="-1.797772">
        <ele>366.0</ele>
        <time>2014-05-20T14:18:39Z</time>
      </trkpt>
      <trkpt lat="42.677723" lon="-1.798115">
        <ele>365.0</ele>
        <time>2014-05-20T14:19:19Z</time>
      </trkpt>
      <trkpt lat="42.677660" lon="-1.798561">
        <ele>366.0</ele>
        <time>2014-05-20T14:19:59Z</time>
      </trkpt>
      <trkpt lat="42.677518" lon="-1.798974">
        <ele>364.0</ele>
        <time>2014-05-20T14:20:39Z</time>
      </trkpt>
      <trkpt lat="42.677360" lon="-1.799333">
        <ele>361.0</ele>
        <time>2014-05-20T14:21:19Z</time>
      </trkpt>
      <trkpt lat="42.677309" lon="-1.799510">
        <ele>361.0</ele>
        <time>2014-05-20T14:21:59Z</time>
      </trkpt>
      <trkpt lat="42.677186" lon="-1.799875">
        <ele>361.0</ele>
        <time>2014-05-20T14:22:39Z</time>
      </trkpt>
      <trkpt lat="42.677084" lon="-1.800052">
        <ele>361.0</ele>
        <time>2014-05-20T14:23:19Z</time>
      </trkpt>
      <trkpt lat="42.677048" lon="-1.800116">
        <ele>360.0</ele>
        <time>2014-05-20T14:23:59Z</time>
      </trkpt>
      <trkpt lat="42.676981" lon="-1.800138">
        <ele>360.0</ele>
        <time>2014-05-20T14:24:39Z</time>
      </trkpt>
      <trkpt lat="42.676922" lon="-1.800175">
        <ele>360.0</ele>
        <time>2014-05-20T14:25:19Z</time>
      </trkpt>
      <trkpt lat="42.676902" lon="-1.800229">
        <ele>360.0</ele>
        <time>2014-05-20T14:25:59Z</time>
      </trkpt>
      <trkpt lat="42.676883" lon="-1.800320">
        <ele>360.0</ele>
        <time>2014-05-20T14:26:39Z</time>
      </trkpt>
      <trkpt lat="42.676859" lon="-1.800481">
        <ele>360.0</ele>
        <time>2014-05-20T14:27:19Z</time>
      </trkpt>
      <trkpt lat="42.676839" lon="-1.800615">
        <ele>360.0</ele>
        <time>2014-05-20T14:27:59Z</time>
      </trkpt>
      <trkpt lat="42.676835" lon="-1.800862">
        <ele>360.0</ele>
        <time>2014-05-20T14:28:39Z</time>
      </trkpt>
      <trkpt lat="42.676835" lon="-1.801023">
        <ele>360.0</ele>
        <time>2014-05-20T14:29:19Z</time>
      </trkpt>
      <trkpt lat="42.676871" lon="-1.801130">
        <ele>360.0</ele>
        <time>2014-05-20T14:29:59Z</time>
      </trkpt>
      <trkpt lat="42.676934" lon="-1.801323">
        <ele>360.0</ele>
        <time>2014-05-20T14:30:39Z</time>
      </trkpt>
      <trkpt lat="42.677009" lon="-1.801543">
        <ele>360.0</ele>
        <time>2014-05-20T14:31:19Z</time>
      </trkpt>
      <trkpt lat="42.677107" lon="-1.801704">
        <ele>362.0</ele>
        <time>2014-05-20T14:31:59Z</time>
      </trkpt>
      <trkpt lat="42.677080" lon="-1.801892">
        <ele>360.0</ele>
        <time>2014-05-20T14:32:39Z</time>
      </trkpt>
      <trkpt lat="42.677088" lon="-1.802182">
        <ele>361.0</ele>
        <time>2014-05-20T14:33:19Z</time>
      </trkpt>
      <trkpt lat="42.677056" lon="-1.802444">
        <ele>359.0</ele>
        <time>2014-05-20T14:33:59Z</time>
      </trkpt>
      <trkpt lat="42.677033" lon="-1.802520">
        <ele>359.0</ele>
        <time>2014-05-20T14:34:39Z</time>
      </trkpt>
      <trkpt lat="42.676989" lon="-1.802654">
        <ele>359.0</ele>
        <time>2014-05-20T14:35:19Z</time>
      </trkpt>
      <trkpt lat="42.676934" lon="-1.802922">
        <ele>359.0</ele>
        <time>2014-05-20T14:35:59Z</time>
      </trkpt>
      <trkpt lat="42.676895" lon="-1.803212">
        <ele>358.0</ele>
        <time>2014-05-20T14:36:39Z</time>
      </trkpt>
      <trkpt lat="42.676883" lon="-1.803469">
        <ele>358.0</ele>
        <time>2014-05-20T14:37:19Z</time>
      </trkpt>
      <trkpt lat="42.676827" lon="-1.803791">
        <ele>359.0</ele>
        <time>2014-05-20T14:37:59Z</time>
      </trkpt>
      <trkpt lat="42.676784" lon="-1.804118">
        <ele>359.0</ele>
        <time>2014-05-20T14:38:39Z</time>
      </trkpt>
      <trkpt lat="42.676753" lon="-1.804429">
        <ele>359.0</ele>
        <time>2014-05-20T14:39:19Z</time>
      </trkpt>
      <trkpt lat="42.676705" lon="-1.804660">
        <ele>359.0</ele>
        <time>2014-05-20T14:39:59Z</time>
      </trkpt>
      <trkpt lat="42.676670" lon="-1.805121">
        <ele>359.0</ele>
        <time>2014-05-20T14:40:39Z</time>
      </trkpt>
      <trkpt lat="42.676642" lon="-1.805454">
        <ele>356.0</ele>
        <time>2014-05-20T14:41:19Z</time>
      </trkpt>
      <trkpt lat="42.676575" lon="-1.805652">
        <ele>356.0</ele>
        <time>2014-05-20T14:41:59Z</time>
      </trkpt>
      <trkpt lat="42.676528" lon="-1.805980">
        <ele>352.0</ele>
        <time>2014-05-20T14:42:39Z</time>
      </trkpt>
      <trkpt lat="42.676465" lon="-1.806194">
        <ele>352.0</ele>
        <time>2014-05-20T14:43:19Z</time>
      </trkpt>
      <trkpt lat="42.676378" lon="-1.806414">
        <ele>354.0</ele>
        <time>2014-05-20T14:43:59Z</time>
      </trkpt>
      <trkpt lat="42.676287" lon="-1.806682">
        <ele>357.0</ele>
        <time>2014-05-20T14:44:39Z</time>
      </trkpt>
      <trkpt lat="42.675980" lon="-1.806983">
        <ele>357.0</ele>
        <time>2014-05-20T14:45:19Z</time>
      </trkpt>
      <trkpt lat="42.675818" lon="-1.807149">
        <ele>356.0</ele>
        <time>2014-05-20T14:45:59Z</time>
      </trkpt>
      <trkpt lat="42.675632" lon="-1.807390">
        <ele>357.0</ele>
        <time>2014-05-20T14:46:39Z</time>
      </trkpt>
      <trkpt lat="42.675573" lon="-1.807594">
        <ele>357.0</ele>
        <time>2014-05-20T14:47:19Z</time>
      </trkpt>
      <trkpt lat="42.675439" lon="-1.807734">
        <ele>360.0</ele>
        <time>2014-05-20T14:47:59Z</time>
      </trkpt>
      <trkpt lat="42.675305" lon="-1.807943">
        <ele>361.0</ele>
        <time>2014-05-20T14:48:39Z</time>
      </trkpt>
      <trkpt lat="42.675104" lon="-1.808206">
        <ele>363.0</ele>
        <time>2014-05-20T14:49:19Z</time>
      </trkpt>
      <trkpt lat="42.674856" lon="-1.808592">
        <ele>363.0</ele>
        <time>2014-05-20T14:49:59Z</time>
      </trkpt>
      <trkpt lat="42.674698" lon="-1.808807">
        <ele>363.0</ele>
        <time>2014-05-20T14:50:39Z</time>
      </trkpt>
      <trkpt lat="42.674449" lon="-1.809236">
        <ele>355.0</ele>
        <time>2014-05-20T14:51:19Z</time>
      </trkpt>
      <trkpt lat="42.674221" lon="-1.809477">
        <ele>350.0</ele>
        <time>2014-05-20T14:51:59Z</time>
      </trkpt>
      <trkpt lat="42.674015" lon="-1.809778">
        <ele>349.0</ele>
        <time>2014-05-20T14:52:39Z</time>
      </trkpt>
      <trkpt lat="42.673830" lon="-1.810051">
        <ele>351.0</ele>
        <time>2014-05-20T14:53:19Z</time>
      </trkpt>
      <trkpt lat="42.673700" lon="-1.810239">
        <ele>350.0</ele>
        <time>2014-05-20T14:53:59Z</time>
      </trkpt>
      <trkpt lat="42.673653" lon="-1.810486">
        <ele>352.0</ele>
        <time>2014-05-20T14:54:39Z</time>
      </trkpt>
      <trkpt lat="42.673558" lon="-1.810454">
        <ele>352.0</ele>
        <time>2014-05-20T14:55:19Z</time>
      </trkpt>
      <trkpt lat="42.673388" lon="-1.810421">
        <ele>349.0</ele>
        <time>2014-05-20T14:55:59Z</time>
      </trkpt>
      <trkpt lat="42.673164" lon="-1.810389">
        <ele>347.0</ele>
        <time>2014-05-20T14:56:39Z</time>
      </trkpt>
      <trkpt lat="42.673156" lon="-1.810443">
        <ele>348.0</ele>
        <time>2014-05-20T14:57:19Z</time>
      </trkpt>
      <trkpt lat="42.673077" lon="-1.810657">
        <ele>348.0</ele>
        <time>2014-05-20T14:57:59Z</time>
      </trkpt>
      <trkpt lat="42.673006" lon="-1.810867">
        <ele>350.0</ele>
        <time>2014-05-20T14:58:39Z</time>
      </trkpt>
      <trkpt lat="42.672947" lon="-1.811070">
        <ele>351.0</ele>
        <time>2014-05-20T14:59:19Z</time>
      </trkpt>
      <trkpt lat="42.672880" lon="-1.811199">
        <ele>350.0</ele>
        <time>2014-05-20T14:59:59Z</time>
      </trkpt>
      <trkpt lat="42.672813" lon="-1.811473">
        <ele>351.0</ele>
        <time>2014-05-20T15:00:39Z</time>
      </trkpt>
      <trkpt lat="42.672749" lon="-1.811762">
        <ele>352.0</ele>
        <time>2014-05-20T15:01:19Z</time>
      </trkpt>
      <trkpt lat="42.672667" lon="-1.812090">
        <ele>354.0</ele>
        <time>2014-05-20T15:01:59Z</time>
      </trkpt>
      <trkpt lat="42.672536" lon="-1.812551">
        <ele>353.0</ele>
        <time>2014-05-20T15:02:39Z</time>
      </trkpt>
      <trkpt lat="42.672501" lon="-1.812766">
        <ele>353.0</ele>
        <time>2014-05-20T15:03:19Z</time>
      </trkpt>
      <trkpt lat="42.672426" lon="-1.812943">
        <ele>353.0</ele>
        <time>2014-05-20T15:03:59Z</time>
      </trkpt>
      <trkpt lat="42.672363" lon="-1.813318">
        <ele>353.0</ele>
        <time>2014-05-20T15:04:39Z</time>
      </trkpt>
      <trkpt lat="42.672304" lon="-1.813661">
        <ele>354.0</ele>
        <time>2014-05-20T15:05:19Z</time>
      </trkpt>
      <trkpt lat="42.672225" lon="-1.814053">
        <ele>354.0</ele>
        <time>2014-05-20T15:05:59Z</time>
      </trkpt>
      <trkpt lat="42.672146" lon="-1.814423">
        <ele>355.0</ele>
        <time>2014-05-20T15:06:39Z</time>
      </trkpt>
      <trkpt lat="42.672122" lon="-1.814681">
        <ele>355.0</ele>
        <time>2014-05-20T15:07:19Z</time>
      </trkpt>
      <trkpt lat="42.672043" lon="-1.815072">
        <ele>355.0</ele>
        <time>2014-05-20T15:07:59Z</time>
      </trkpt>
      <trkpt lat="42.671992" lon="-1.815276">
        <ele>355.0</ele>
        <time>2014-05-20T15:08:39Z</time>
      </trkpt>
      <trkpt lat="42.671953" lon="-1.815453">
        <ele>356.0</ele>
        <time>2014-05-20T15:09:19Z</time>
      </trkpt>
      <trkpt lat="42.671953" lon="-1.815539">
        <ele>356.0</ele>
        <time>2014-05-20T15:09:59Z</time>
      </trkpt>
      <trkpt lat="42.671834" lon="-1.815566">
        <ele>356.0</ele>
        <time>2014-05-20T15:10:39Z</time>
      </trkpt>
      <trkpt lat="42.671464" lon="-1.815523">
        <ele>353.0</ele>
        <time>2014-05-20T15:11:19Z</time>
      </trkpt>
      <trkpt lat="42.671337" lon="-1.815518">
        <ele>353.0</ele>
        <time>2014-05-20T15:11:59Z</time>
      </trkpt>
      <trkpt lat="42.671124" lon="-1.815485">
        <ele>351.0</ele>
        <time>2014-05-20T15:12:39Z</time>
      </trkpt>
      <trkpt lat="42.671022" lon="-1.815453">
        <ele>351.0</ele>
        <time>2014-05-20T15:13:19Z</time>
      </trkpt>
      <trkpt lat="42.671053" lon="-1.815228">
        <ele>351.0</ele>
        <time>2014-05-20T15:13:59Z</time>
      </trkpt>
      <trkpt lat="42.671097" lon="-1.815121">
        <ele>351.0</ele>
        <time>2014-05-20T15:14:39Z</time>
      </trkpt>
      <trkpt lat="42.671262" lon="-1.814386">
        <ele>352.0</ele>
        <time>2014-05-20T15:15:19Z</time>
      </trkpt>
      <trkpt lat="42.671408" lon="-1.813672">
        <ele>353.0</ele>
        <time>2014-05-20T15:15:59Z</time>
      </trkpt>
      <trkpt lat="42.671519" lon="-1.812921">
        <ele>354.0</ele>
        <time>2014-05-20T15:16:39Z</time>
      </trkpt>
      <trkpt lat="42.671606" lon="-1.812594">
        <ele>355.0</ele>
        <time>2014-05-20T15:17:19Z</time>
      </trkpt>
      <trkpt lat="42.671866" lon="-1.812567">
        <ele>354.0</ele>
        <time>2014-05-20T15:17:59Z</time>
      </trkpt>
      <trkpt lat="42.672166" lon="-1.812658">
        <ele>353.0</ele>
        <time>2014-05-20T15:18:39Z</time>
      </trkpt>
      <trkpt lat="42.672422" lon="-1.812744">
        <ele>353.0</ele>
        <time>2014-05-20T15:19:19Z</time>
      </trkpt>
      <trkpt lat="42.672493" lon="-1.812648">
        <ele>353.0</ele>
        <time>2014-05-20T15:19:59Z</time>
      </trkpt>
      <trkpt lat="42.672548" lon="-1.812369">
        <ele>353.0</ele>
        <time>2014-05-20T15:20:39Z</time>
      </trkpt>
      <trkpt lat="42.672659" lon="-1.811988">
        <ele>353.0</ele>
        <time>2014-05-20T15:21:19Z</time>
      </trkpt>
      <trkpt lat="42.672730" lon="-1.811752">
        <ele>352.0</ele>
        <time>2014-05-20T15:21:59Z</time>
      </trkpt>
      <trkpt lat="42.672887" lon="-1.811162">
        <ele>350.0</ele>
        <time>2014-05-20T15:22:39Z</time>
      </trkpt>
      <trkpt lat="42.672939" lon="-1.811006">
        <ele>351.0</ele>
        <time>2014-05-20T15:23:19Z</time>
      </trkpt>
      <trkpt lat="42.673022" lon="-1.810679">
        <ele>348.0</ele>
        <time>2014-05-20T15:23:59Z</time>
      </trkpt>
      <trkpt lat="42.673140" lon="-1.810400">
        <ele>347.0</ele>
        <time>2014-05-20T15:24:39Z</time>
      </trkpt>
      <trkpt lat="42.673274" lon="-1.810346">
        <ele>348.0</ele>
        <time>2014-05-20T15:25:19Z</time>
      </trkpt>
      <trkpt lat="42.673660" lon="-1.810448">
        <ele>352.0</ele>
        <time>2014-05-20T15:25:59Z</time>
      </trkpt>
      <trkpt lat="42.673688" lon="-1.810217">
        <ele>350.0</ele>
        <time>2014-05-20T15:26:39Z</time>
      </trkpt>
      <trkpt lat="42.673858" lon="-1.809960">
        <ele>351.0</ele>
        <time>2014-05-20T15:27:19Z</time>
      </trkpt>
      <trkpt lat="42.674063" lon="-1.809708">
        <ele>352.0</ele>
        <time>2014-05-20T15:27:59Z</time>
      </trkpt>
      <trkpt lat="42.674217" lon="-1.809413">
        <ele>350.0</ele>
        <time>2014-05-20T15:28:39Z</time>
      </trkpt>
      <trkpt lat="42.674505" lon="-1.809107">
        <ele>355.0</ele>
        <time>2014-05-20T15:29:19Z</time>
      </trkpt>
      <trkpt lat="42.674690" lon="-1.808742">
        <ele>363.0</ele>
        <time>2014-05-20T15:29:59Z</time>
      </trkpt>
      <trkpt lat="42.674938" lon="-1.808447">
        <ele>363.0</ele>
        <time>2014-05-20T15:30:39Z</time>
      </trkpt>
      <trkpt lat="42.675136" lon="-1.808147">
        <ele>360.0</ele>
        <time>2014-05-20T15:31:19Z</time>
      </trkpt>
      <trkpt lat="42.675538" lon="-1.807610">
        <ele>357.0</ele>
        <time>2014-05-20T15:31:59Z</time>
      </trkpt>
      <trkpt lat="42.675597" lon="-1.807417">
        <ele>357.0</ele>
        <time>2014-05-20T15:32:39Z</time>
      </trkpt>
      <trkpt lat="42.675723" lon="-1.807213">
        <ele>356.0</ele>
        <time>2014-05-20T15:33:19Z</time>
      </trkpt>
      <trkpt lat="42.675877" lon="-1.807069">
        <ele>354.0</ele>
        <time>2014-05-20T15:33:59Z</time>
      </trkpt>
      <trkpt lat="42.676256" lon="-1.806693">
        <ele>357.0</ele>
        <time>2014-05-20T15:34:39Z</time>
      </trkpt>
      <trkpt lat="42.676307" lon="-1.806570">
        <ele>357.0</ele>
        <time>2014-05-20T15:35:19Z</time>
      </trkpt>
      <trkpt lat="42.676433" lon="-1.806248">
        <ele>352.0</ele>
        <time>2014-05-20T15:35:59Z</time>
      </trkpt>
      <trkpt lat="42.676488" lon="-1.806087">
        <ele>352.0</ele>
        <time>2014-05-20T15:36:39Z</time>
      </trkpt>
      <trkpt lat="42.676555" lon="-1.805744">
        <ele>353.0</ele>
        <time>2014-05-20T15:37:19Z</time>
      </trkpt>
      <trkpt lat="42.676611" lon="-1.805475">
        <ele>356.0</ele>
        <time>2014-05-20T15:37:59Z</time>
      </trkpt>
      <trkpt lat="42.676662" lon="-1.805261">
        <ele>359.0</ele>
        <time>2014-05-20T15:38:39Z</time>
      </trkpt>
      <trkpt lat="42.676686" lon="-1.804858">
        <ele>359.0</ele>
        <time>2014-05-20T15:39:19Z</time>
      </trkpt>
      <trkpt lat="42.676721" lon="-1.804445">
        <ele>359.0</ele>
        <time>2014-05-20T15:39:59Z</time>
      </trkpt>
      <trkpt lat="42.676764" lon="-1.804091">
        <ele>359.0</ele>
        <time>2014-05-20T15:40:39Z</time>
      </trkpt>
      <trkpt lat="42.676879" lon="-1.803362">
        <ele>358.0</ele>
        <time>2014-05-20T15:41:19Z</time>
      </trkpt>
      <trkpt lat="42.676938" lon="-1.802890">
        <ele>359.0</ele>
        <time>2014-05-20T15:41:59Z</time>
      </trkpt>
      <trkpt lat="42.677021" lon="-1.802520">
        <ele>359.0</ele>
        <time>2014-05-20T15:42:39Z</time>
      </trkpt>
      <trkpt lat="42.677060" lon="-1.802353">
        <ele>360.0</ele>
        <time>2014-05-20T15:43:19Z</time>
      </trkpt>
      <trkpt lat="42.677084" lon="-1.802096">
        <ele>361.0</ele>
        <time>2014-05-20T15:43:59Z</time>
      </trkpt>
      <trkpt lat="42.677107" lon="-1.801726">
        <ele>362.0</ele>
        <time>2014-05-20T15:44:39Z</time>
      </trkpt>
      <trkpt lat="42.676958" lon="-1.801431">
        <ele>360.0</ele>
        <time>2014-05-20T15:45:19Z</time>
      </trkpt>
      <trkpt lat="42.676891" lon="-1.801216">
        <ele>360.0</ele>
        <time>2014-05-20T15:45:59Z</time>
      </trkpt>
      <trkpt lat="42.676831" lon="-1.800932">
        <ele>360.0</ele>
        <time>2014-05-20T15:46:39Z</time>
      </trkpt>
      <trkpt lat="42.676835" lon="-1.800663">
        <ele>360.0</ele>
        <time>2014-05-20T15:47:19Z</time>
      </trkpt>
      <trkpt lat="42.676879" lon="-1.800406">
        <ele>360.0</ele>
        <time>2014-05-20T15:47:59Z</time>
      </trkpt>
      <trkpt lat="42.676914" lon="-1.800191">
        <ele>360.0</ele>
        <time>2014-05-20T15:48:39Z</time>
      </trkpt>
      <trkpt lat="42.677033" lon="-1.800111">
        <ele>360.0</ele>
        <time>2014-05-20T15:49:19Z</time>
      </trkpt>
      <trkpt lat="42.677139" lon="-1.799950">
        <ele>361.0</ele>
        <time>2014-05-20T15:49:59Z</time>
      </trkpt>
      <trkpt lat="42.677222" lon="-1.799778">
        <ele>361.0</ele>
        <time>2014-05-20T15:50:39Z</time>
      </trkpt>
      <trkpt lat="42.677376" lon="-1.799376">
        <ele>363.0</ele>
        <time>2014-05-20T15:51:19Z</time>
      </trkpt>
      <trkpt lat="42.677541" lon="-1.798845">
        <ele>364.0</ele>
        <time>2014-05-20T15:51:59Z</time>
      </trkpt>
      <trkpt lat="42.677656" lon="-1.798491">
        <ele>366.0</ele>
        <time>2014-05-20T15:52:39Z</time>
      </trkpt>
      <trkpt lat="42.677731" lon="-1.798115">
        <ele>365.0</ele>
        <time>2014-05-20T15:53:19Z</time>
      </trkpt>
      <trkpt lat="42.677802" lon="-1.797568">
        <ele>367.0</ele>
        <time>2014-05-20T15:53:59Z</time>
      </trkpt>
      <trkpt lat="42.677841" lon="-1.797112">
        <ele>367.0</ele>
        <time>2014-05-20T15:54:39Z</time>
      </trkpt>
      <trkpt lat="42.677940" lon="-1.796452">
        <ele>374.0</ele>
        <time>2014-05-20T15:55:19Z</time>
      </trkpt>
      <trkpt lat="42.678042" lon="-1.795825">
        <ele>377.0</ele>
        <time>2014-05-20T15:55:59Z</time>
      </trkpt>
      <trkpt lat="42.678133" lon="-1.795197">
        <ele>380.0</ele>
        <time>2014-05-20T15:56:39Z</time>
      </trkpt>
      <trkpt lat="42.678216" lon="-1.794859">
        <ele>388.0</ele>
        <time>2014-05-20T15:57:19Z</time>
      </trkpt>
      <trkpt lat="42.678271" lon="-1.794441">
        <ele>389.0</ele>
        <time>2014-05-20T15:57:59Z</time>
      </trkpt>
      <trkpt lat="42.678318" lon="-1.794022">
        <ele>393.0</ele>
        <time>2014-05-20T15:58:39Z</time>
      </trkpt>
      <trkpt lat="42.678381" lon="-1.793700">
        <ele>395.0</ele>
        <time>2014-05-20T15:59:19Z</time>
      </trkpt>
      <trkpt lat="42.678484" lon="-1.793261">
        <ele>398.0</ele>
        <time>2014-05-20T15:59:59Z</time>
      </trkpt>
      <trkpt lat="42.678614" lon="-1.792923">
        <ele>397.0</ele>
        <time>2014-05-20T16:00:39Z</time>
      </trkpt>
      <trkpt lat="42.678744" lon="-1.792687">
        <ele>397.0</ele>
        <time>2014-05-20T16:01:19Z</time>
      </trkpt>
      <trkpt lat="42.678870" lon="-1.792397">
        <ele>400.0</ele>
        <time>2014-05-20T16:01:59Z</time>
      </trkpt>
      <trkpt lat="42.679060" lon="-1.792027">
        <ele>405.0</ele>
        <time>2014-05-20T16:02:39Z</time>
      </trkpt>
      <trkpt lat="42.679249" lon="-1.791598">
        <ele>406.0</ele>
        <time>2014-05-20T16:03:19Z</time>
      </trkpt>
      <trkpt lat="42.679324" lon="-1.791410">
        <ele>406.0</ele>
        <time>2014-05-20T16:03:59Z</time>
      </trkpt>
      <trkpt lat="42.679387" lon="-1.790965">
        <ele>406.0</ele>
        <time>2014-05-20T16:04:39Z</time>
      </trkpt>
      <trkpt lat="42.679407" lon="-1.790589">
        <ele>406.0</ele>
        <time>2014-05-20T16:05:19Z</time>
      </trkpt>
      <trkpt lat="42.679415" lon="-1.790299">
        <ele>405.0</ele>
        <time>2014-05-20T16:05:59Z</time>
      </trkpt>
      <trkpt lat="42.679328" lon="-1.789854">
        <ele>407.0</ele>
        <time>2014-05-20T16:06:39Z</time>
      </trkpt>
      <trkpt lat="42.679237" lon="-1.789302">
        <ele>409.0</ele>
        <time>2014-05-20T16:07:19Z</time>
      </trkpt>
      <trkpt lat="42.679135" lon="-1.788953">
        <ele>411.0</ele>
        <time>2014-05-20T16:07:59Z</time>
      </trkpt>
      <trkpt lat="42.678973" lon="-1.788164">
        <ele>413.0</ele>
        <time>2014-05-20T16:08:39Z</time>
      </trkpt>
      <trkpt lat="42.678945" lon="-1.787821">
        <ele>409.0</ele>
        <time>2014-05-20T16:09:19Z</time>
      </trkpt>
      <trkpt lat="42.678949" lon="-1.787698">
        <ele>409.0</ele>
        <time>2014-05-20T16:09:59Z</time>
      </trkpt>
      <trkpt lat="42.679075" lon="-1.787478">
        <ele>411.0</ele>
        <time>2014-05-20T16:10:39Z</time>
      </trkpt>
      <trkpt lat="42.679233" lon="-1.787279">
        <ele>407.0</ele>
        <time>2014-05-20T16:11:19Z</time>
      </trkpt>
      <trkpt lat="42.679273" lon="-1.787177">
        <ele>407.0</ele>
        <time>2014-05-20T16:11:59Z</time>
      </trkpt>
      <trkpt lat="42.679229" lon="-1.787054">
        <ele>403.0</ele>
        <time>2014-05-20T16:12:39Z</time>
      </trkpt>
      <trkpt lat="42.679292" lon="-1.786952">
        <ele>403.0</ele>
        <time>2014-05-20T16:13:19Z</time>
      </trkpt>
      <trkpt lat="42.679320" lon="-1.786829">
        <ele>408.0</ele>
        <time>2014-05-20T16:13:59Z</time>
      </trkpt>
      <trkpt lat="42.679336" lon="-1.786732">
        <ele>404.0</ele>
        <time>2014-05-20T16:14:39Z</time>
      </trkpt>
      <trkpt lat="42.679320" lon="-1.786550">
        <ele>404.0</ele>
        <time>2014-05-20T16:15:19Z</time>
      </trkpt>
      <trkpt lat="42.679320" lon="-1.786383">
        <ele>405.0</ele>
        <time>2014-05-20T16:15:59Z</time>
      </trkpt>
      <trkpt lat="42.679403" lon="-1.786255">
        <ele>405.0</ele>
        <time>2014-05-20T16:16:39Z</time>
      </trkpt>
      <trkpt lat="42.679509" lon="-1.786051">
        <ele>408.0</ele>
        <time>2014-05-20T16:17:19Z</time>
      </trkpt>
      <trkpt lat="42.679584" lon="-1.785927">
        <ele>408.0</ele>
        <time>2014-05-20T16:17:59Z</time>
      </trkpt>
      <trkpt lat="42.679908" lon="-1.785740">
        <ele>409.0</ele>
        <time>2014-05-20T16:18:39Z</time>
      </trkpt>
      <trkpt lat="42.680093" lon="-1.785654">
        <ele>408.0</ele>
        <time>2014-05-20T16:19:19Z</time>
      </trkpt>
      <trkpt lat="42.680337" lon="-1.785579">
        <ele>410.0</ele>
        <time>2014-05-20T16:19:59Z</time>
      </trkpt>
      <trkpt lat="42.680649" lon="-1.785391">
        <ele>415.0</ele>
        <time>2014-05-20T16:20:39Z</time>
      </trkpt>
      <trkpt lat="42.680822" lon="-1.785284">
        <ele>418.0</ele>
        <time>2014-05-20T16:21:19Z</time>
      </trkpt>
      <trkpt lat="42.680957" lon="-1.785166">
        <ele>418.0</ele>
        <time>2014-05-20T16:21:59Z</time>
      </trkpt>
      <trkpt lat="42.680921" lon="-1.784876">
        <ele>420.0</ele>
        <time>2014-05-20T16:22:39Z</time>
      </trkpt>
      <trkpt lat="42.680874" lon="-1.784608">
        <ele>421.0</ele>
        <time>2014-05-20T16:23:19Z</time>
      </trkpt>
      <trkpt lat="42.680980" lon="-1.784522">
        <ele>421.0</ele>
        <time>2014-05-20T16:23:59Z</time>
      </trkpt>
      <trkpt lat="42.681248" lon="-1.784431">
        <ele>421.0</ele>
        <time>2014-05-20T16:24:39Z</time>
      </trkpt>
      <trkpt lat="42.681359" lon="-1.784307">
        <ele>422.0</ele>
        <time>2014-05-20T16:25:19Z</time>
      </trkpt>
      <trkpt lat="42.681315" lon="-1.784098">
        <ele>423.0</ele>
        <time>2014-05-20T16:25:59Z</time>
      </trkpt>
      <trkpt lat="42.681327" lon="-1.783792">
        <ele>424.0</ele>
        <time>2014-05-20T16:26:39Z</time>
      </trkpt>
      <trkpt lat="42.681296" lon="-1.783487">
        <ele>426.0</ele>
        <time>2014-05-20T16:27:19Z</time>
      </trkpt>
      <trkpt lat="42.681296" lon="-1.783036">
        <ele>431.0</ele>
        <time>2014-05-20T16:27:59Z</time>
      </trkpt>
      <trkpt lat="42.681292" lon="-1.782757">
        <ele>432.0</ele>
        <time>2014-05-20T16:28:39Z</time>
      </trkpt>
      <trkpt lat="42.681288" lon="-1.782414">
        <ele>429.0</ele>
        <time>2014-05-20T16:29:19Z</time>
      </trkpt>
      <trkpt lat="42.681308" lon="-1.782049">
        <ele>417.0</ele>
        <time>2014-05-20T16:29:59Z</time>
      </trkpt>
      <trkpt lat="42.681375" lon="-1.781657">
        <ele>413.0</ele>
        <time>2014-05-20T16:30:39Z</time>
      </trkpt>
      <trkpt lat="42.681430" lon="-1.781539">
        <ele>413.0</ele>
        <time>2014-05-20T16:31:19Z</time>
      </trkpt>
      <trkpt lat="42.681722" lon="-1.781239">
        <ele>409.0</ele>
        <time>2014-05-20T16:31:59Z</time>
      </trkpt>
      <trkpt lat="42.682112" lon="-1.780965">
        <ele>414.0</ele>
        <time>2014-05-20T16:32:39Z</time>
      </trkpt>
      <trkpt lat="42.682262" lon="-1.780756">
        <ele>414.0</ele>
        <time>2014-05-20T16:33:19Z</time>
      </trkpt>
      <trkpt lat="42.682554" lon="-1.780311">
        <ele>413.0</ele>
        <time>2014-05-20T16:33:59Z</time>
      </trkpt>
      <trkpt lat="42.682759" lon="-1.780069">
        <ele>412.0</ele>
        <time>2014-05-20T16:34:39Z</time>
      </trkpt>
      <trkpt lat="42.683043" lon="-1.779565">
        <ele>408.0</ele>
        <time>2014-05-20T16:35:19Z</time>
      </trkpt>
      <trkpt lat="42.683303" lon="-1.779040">
        <ele>406.0</ele>
        <time>2014-05-20T16:35:59Z</time>
      </trkpt>
      <trkpt lat="42.683473" lon="-1.778680">
        <ele>401.0</ele>
        <time>2014-05-20T16:36:39Z</time>
      </trkpt>
      <trkpt lat="42.683630" lon="-1.778466">
        <ele>400.0</ele>
        <time>2014-05-20T16:37:19Z</time>
      </trkpt>
      <trkpt lat="42.683906" lon="-1.778197">
        <ele>398.0</ele>
        <time>2014-05-20T16:37:59Z</time>
      </trkpt>
      <trkpt lat="42.684029" lon="-1.777838">
        <ele>395.0</ele>
        <time>2014-05-20T16:38:39Z</time>
      </trkpt>
      <trkpt lat="42.684249" lon="-1.777403">
        <ele>395.0</ele>
        <time>2014-05-20T16:39:19Z</time>
      </trkpt>
      <trkpt lat="42.684541" lon="-1.776792">
        <ele>396.0</ele>
        <time>2014-05-20T16:39:59Z</time>
      </trkpt>
      <trkpt lat="42.684730" lon="-1.776647">
        <ele>395.0</ele>
        <time>2014-05-20T16:40:39Z</time>
      </trkpt>
      <trkpt lat="42.685141" lon="-1.776068">
        <ele>399.0</ele>
        <time>2014-05-20T16:41:19Z</time>
      </trkpt>
      <trkpt lat="42.685314" lon="-1.775864">
        <ele>401.0</ele>
        <time>2014-05-20T16:41:59Z</time>
      </trkpt>
      <trkpt lat="42.685535" lon="-1.775649">
        <ele>403.0</ele>
        <time>2014-05-20T16:42:39Z</time>
      </trkpt>
      <trkpt lat="42.685906" lon="-1.775322">
        <ele>404.0</ele>
        <time>2014-05-20T16:43:19Z</time>
      </trkpt>
      <trkpt lat="42.686237" lon="-1.775059">
        <ele>406.0</ele>
        <time>2014-05-20T16:43:59Z</time>
      </trkpt>
      <trkpt lat="42.686469" lon="-1.774818">
        <ele>410.0</ele>
        <time>2014-05-20T16:44:39Z</time>
      </trkpt>
      <trkpt lat="42.686738" lon="-1.774501">
        <ele>415.0</ele>
        <time>2014-05-20T16:45:19Z</time>
      </trkpt>
      <trkpt lat="42.686939" lon="-1.774254">
        <ele>421.0</ele>
        <time>2014-05-20T16:45:59Z</time>
      </trkpt>
      <trkpt lat="42.687203" lon="-1.773895">
        <ele>426.0</ele>
        <time>2014-05-20T16:46:39Z</time>
      </trkpt>
      <trkpt lat="42.687341" lon="-1.773729">
        <ele>431.0</ele>
        <time>2014-05-20T16:47:19Z</time>
      </trkpt>
      <trkpt lat="42.687629" lon="-1.773369">
        <ele>434.0</ele>
        <time>2014-05-20T16:47:59Z</time>
      </trkpt>
      <trkpt lat="42.687779" lon="-1.772704">
        <ele>440.0</ele>
        <time>2014-05-20T16:48:39Z</time>
      </trkpt>
      <trkpt lat="42.687822" lon="-1.772538">
        <ele>443.0</ele>
        <time>2014-05-20T16:49:19Z</time>
      </trkpt>
      <trkpt lat="42.687978" lon="-1.772334">
        <ele>446.0</ele>
        <time>2014-05-20T16:49:59Z</time>
      </trkpt>
      <trkpt lat="42.687905" lon="-1.772047">
        <ele>448.0</ele>
        <time>2014-05-20T16:50:39Z</time>
      </trkpt>
      <trkpt lat="42.687844" lon="-1.771757">
        <ele>449.0</ele>
        <time>2014-05-20T16:51:19Z</time>
      </trkpt>
      <trkpt lat="42.687781" lon="-1.771489">
        <ele>450.0</ele>
        <time>2014-05-20T16:51:59Z</time>
      </trkpt>
      <trkpt lat="42.687710" lon="-1.771173">
        <ele>450.0</ele>
        <time>2014-05-20T16:52:39Z</time>
      </trkpt>
      <trkpt lat="42.687688" lon="-1.771001">
        <ele>450.0</ele>
        <time>2014-05-20T16:53:19Z</time>
      </trkpt>
      <trkpt lat="42.687881" lon="-1.770800">
        <ele>449.0</ele>
        <time>2014-05-20T16:53:59Z</time>
      </trkpt>
      <trkpt lat="42.688088" lon="-1.770658">
        <ele>448.0</ele>
        <time>2014-05-20T16:54:39Z</time>
      </trkpt>
      <trkpt lat="42.688242" lon="-1.770558">
        <ele>448.0</ele>
        <time>2014-05-20T16:55:19Z</time>
      </trkpt>
      <trkpt lat="42.688368" lon="-1.770652">
        <ele>448.0</ele>
        <time>2014-05-20T16:55:59Z</time>
      </trkpt>
      <trkpt lat="42.688484" lon="-1.770800">
        <ele>450.0</ele>
        <time>2014-05-20T16:56:39Z</time>
      </trkpt>
      <trkpt lat="42.688697" lon="-1.770929">
        <ele>450.0</ele>
        <time>2014-05-20T16:57:19Z</time>
      </trkpt>
      <trkpt lat="42.688827" lon="-1.770848">
        <ele>449.0</ele>
        <time>2014-05-20T16:57:59Z</time>
      </trkpt>
      <trkpt lat="42.688979" lon="-1.770778">
        <ele>449.0</ele>
        <time>2014-05-20T16:58:39Z</time>
      </trkpt>
      <trkpt lat="42.689204" lon="-1.770692">
        <ele>447.0</ele>
        <time>2014-05-20T16:59:19Z</time>
      </trkpt>
      <trkpt lat="42.689381" lon="-1.770574">
        <ele>447.0</ele>
        <time>2014-05-20T16:59:59Z</time>
      </trkpt>
      <trkpt lat="42.689411" lon="-1.770529">
        <ele>447.0</ele>
        <time>2014-05-20T17:00:39Z</time>
      </trkpt>
      <trkpt lat="42.689372" lon="-1.770287">
        <ele>447.0</ele>
        <time>2014-05-20T17:01:19Z</time>
      </trkpt>
      <trkpt lat="42.689352" lon="-1.770188">
        <ele>447.0</ele>
        <time>2014-05-20T17:01:59Z</time>
      </trkpt>
      <trkpt lat="42.689573" lon="-1.770116">
        <ele>447.0</ele>
        <time>2014-05-20T17:02:39Z</time>
      </trkpt>
    </trkseg>
  </trk></gpx>